Time;durP1;ratioP1;P1;durP2;ratioP2;P2;SDS_P1;SDS_P2;PMS_P1;PMS_P2;Temp;Humidity;BMP_temperature;BMP_pressure;BME280_temperature;BME280_humidity;BME280_pressure;Samples;Min_cycle;Max_cycle;Signal;HPM_P1;HPM_P2
2021/06/15 00:01:55;;;;;;;6.07;3.97;;;23.60;57.90;;;;;;4987488;28;20030;-42
2021/06/15 00:04:21;;;;;;;4.60;3.67;;;23.50;58.30;;;;;;4989917;28;20038;-41
2021/06/15 00:06:47;;;;;;;5.05;3.78;;;23.50;58.40;;;;;;4989792;28;20034;-41
2021/06/15 00:09:12;;;;;;;4.13;3.72;;;23.50;58.60;;;;;;4985690;28;20043;-40
2021/06/15 00:11:38;;;;;;;4.72;3.70;;;23.60;58.60;;;;;;4975544;28;20023;-41
2021/06/15 00:14:04;;;;;;;4.80;3.80;;;23.60;58.80;;;;;;4977868;28;20054;-40
2021/06/15 00:16:30;;;;;;;4.13;3.72;;;23.50;58.80;;;;;;4990741;28;20014;-41
2021/06/15 00:18:55;;;;;;;4.43;4.00;;;23.40;59.10;;;;;;4992195;28;20034;-40
2021/06/15 00:21:21;;;;;;;5.10;4.70;;;23.40;59.40;;;;;;4985706;28;20400;-40
2021/06/15 00:23:47;;;;;;;4.82;4.30;;;23.40;59.50;;;;;;4985339;28;20134;-40
2021/06/15 00:26:12;;;;;;;5.72;5.18;;;23.30;59.80;;;;;;4988607;28;20416;-40
2021/06/15 00:28:38;;;;;;;6.25;5.65;;;23.30;59.90;;;;;;4989579;28;20038;-42
2021/06/15 00:31:04;;;;;;;6.13;5.72;;;23.20;60.40;;;;;;4993907;28;20030;-43
2021/06/15 00:33:29;;;;;;;6.72;6.22;;;23.20;60.80;;;;;;4984865;28;20022;-39
2021/06/15 00:35:55;;;;;;;8.45;7.65;;;23.20;61.00;;;;;;4986001;28;20038;-38
2021/06/15 00:38:20;;;;;;;7.47;6.68;;;23.20;61.00;;;;;;4986393;28;20030;-41
2021/06/15 00:40:46;;;;;;;8.02;7.38;;;23.20;61.20;;;;;;4988862;28;20030;-40
2021/06/15 00:43:12;;;;;;;9.20;8.02;;;23.20;61.30;;;;;;4989546;28;20074;-40
2021/06/15 00:45:37;;;;;;;8.52;7.70;;;23.20;61.70;;;;;;4990112;28;20563;-38
2021/06/15 00:48:03;;;;;;;8.93;8.02;;;23.20;61.70;;;;;;4984367;28;20035;-38
2021/06/15 00:50:29;;;;;;;8.68;7.93;;;23.20;61.90;;;;;;4979284;28;20027;-40
2021/06/15 00:52:55;;;;;;;8.68;7.97;;;23.20;61.90;;;;;;4989570;28;20038;-40
2021/06/15 00:55:25;;;;;;;9.25;8.35;;;23.10;62.00;;;;;;4989633;28;20033;-38
2021/06/15 00:57:50;;;;;;;9.38;8.40;;;23.20;62.00;;;;;;4991195;28;20504;-36
2021/06/15 01:00:17;;;;;;;9.85;9.02;;;23.20;62.00;;;;;;4985543;28;20021;-40
2021/06/15 01:02:42;;;;;;;10.50;9.70;;;23.10;62.40;;;;;;4985440;28;20116;-39
2021/06/15 01:05:09;;;;;;;9.95;9.05;;;23.00;62.80;;;;;;4989079;28;20152;-43
2021/06/15 01:07:55;;;;;;;11.98;9.40;;;23.10;62.70;;;;;;4989371;28;20019;-40
2021/06/15 01:10:40;;;;;;;10.68;9.60;;;23.00;62.90;;;;;;4988355;28;20125;-38
2021/06/15 01:13:05;;;;;;;10.95;9.90;;;23.00;62.90;;;;;;4997706;28;20027;-40
2021/06/15 01:16:00;;;;;;;10.93;10.02;;;23.10;63.20;;;;;;4987479;28;20037;-39
2021/06/15 01:18:26;;;;;;;;;;;23.00;63.40;;;;;;4886289;29;20037;-41
2021/06/15 01:20:55;;;;;;;10.27;9.38;;;23.00;63.80;;;;;;4890916;29;20298;-39
2021/06/15 01:23:38;;;;;;;10.05;9.00;;;22.90;63.80;;;;;;4902117;29;20068;-38
2021/06/15 01:26:40;;;;;;;10.02;9.23;;;22.90;63.90;;;;;;4911006;29;20147;-41
2021/06/15 01:29:11;;;;;;;10.38;9.48;;;22.90;63.90;;;;;;4898646;29;20084;-39
2021/06/15 01:31:45;;;;;;;11.15;10.00;;;22.90;63.90;;;;;;4907389;29;20028;-41
2021/06/15 01:34:21;;;;;;;10.30;9.23;;;22.90;63.90;;;;;;4912901;29;20035;-40
2021/06/15 01:36:59;;;;;;;10.45;9.45;;;22.80;64.10;;;;;;4882633;29;20047;-40
2021/06/15 01:39:27;;;;;;;9.40;8.70;;;22.90;64.30;;;;;;4896112;29;20193;-38
2021/06/15 01:42:24;;;;;;;9.48;8.57;;;22.80;64.40;;;;;;4909527;29;20585;-40
2021/06/15 01:45:04;;;;;;;10.00;9.18;;;22.80;64.50;;;;;;4890218;29;20055;-36
2021/06/15 01:47:29;;;;;;;10.07;9.13;;;22.80;64.70;;;;;;4908316;29;20024;-41
2021/06/15 01:49:58;;;;;;;10.70;9.85;;;22.80;64.60;;;;;;4909698;29;20148;-41
2021/06/15 01:52:34;;;;;;;16.15;10.88;;;22.80;64.60;;;;;;4911773;29;20027;-38
2021/06/15 01:55:01;;;;;;;11.00;9.55;;;22.80;64.60;;;;;;4946893;28;20483;-41
2021/06/15 01:57:27;;;;;;;11.32;10.18;;;22.80;64.70;;;;;;5008203;28;20088;-40
2021/06/15 01:59:53;;;;;;;11.10;10.10;;;22.80;64.90;;;;;;4991603;28;20038;-37
2021/06/15 02:02:19;;;;;;;11.18;9.85;;;22.90;64.70;;;;;;5013152;28;20027;-41
2021/06/15 02:04:48;;;;;;;11.35;10.30;;;22.80;64.90;;;;;;5018639;28;20039;-37
2021/06/15 02:07:15;;;;;;;12.57;11.35;;;22.80;65.30;;;;;;5004474;28;20027;-40
2021/06/15 02:09:43;;;;;;;11.55;10.45;;;22.80;65.40;;;;;;5003061;28;20038;-40
2021/06/15 02:12:09;;;;;;;11.48;10.43;;;22.80;65.40;;;;;;4990771;28;20031;-40
2021/06/15 02:14:35;;;;;;;11.65;10.65;;;22.80;65.40;;;;;;4976438;28;20033;-40
2021/06/15 02:17:00;;;;;;;11.40;10.30;;;22.80;65.40;;;;;;4999365;28;20370;-40
2021/06/15 02:19:27;;;;;;;11.80;10.60;;;22.70;65.50;;;;;;5003589;28;20038;-41
2021/06/15 02:22:04;;;;;;;11.68;10.50;;;22.80;65.60;;;;;;5008428;28;20042;-40
2021/06/15 02:24:51;;;;;;;12.13;10.93;;;22.70;66.00;;;;;;4983925;28;20038;-40
2021/06/15 02:27:19;;;;;;;13.32;11.20;;;22.70;65.90;;;;;;4975914;28;20031;-39
2021/06/15 02:29:44;;;;;;;12.63;11.48;;;22.60;66.20;;;;;;5005934;28;20035;-39
2021/06/15 02:32:11;;;;;;;11.50;10.40;;;22.60;66.20;;;;;;4975658;28;20049;-41
2021/06/15 02:34:41;;;;;;;11.77;10.68;;;22.70;66.00;;;;;;5003602;28;20031;-36
2021/06/15 02:37:07;;;;;;;11.07;9.95;;;22.60;67.10;;;;;;5006353;28;20545;-35
2021/06/15 02:39:33;;;;;;;12.68;11.38;;;22.70;66.00;;;;;;4989146;28;20041;-40
2021/06/15 02:41:59;;;;;;;11.35;10.27;;;22.70;66.00;;;;;;4985263;28;20038;-39
2021/06/15 02:44:28;;;;;;;12.13;10.93;;;22.60;66.20;;;;;;5003576;28;20413;-39
2021/06/15 02:46:55;;;;;;;12.27;11.02;;;22.70;66.00;;;;;;4985130;28;20023;-43
2021/06/15 02:49:21;;;;;;;11.27;10.27;;;22.70;66.10;;;;;;4988361;28;20564;-41
2021/06/15 02:52:00;;;;;;;11.52;10.35;;;22.70;66.10;;;;;;4999860;28;20589;-40
2021/06/15 02:54:29;;;;;;;10.93;10.02;;;22.70;66.00;;;;;;5004238;28;20029;-41
2021/06/15 02:56:55;;;;;;;10.70;9.63;;;22.60;66.20;;;;;;4999013;28;20031;-40
2021/06/15 02:59:21;;;;;;;10.43;9.63;;;22.70;65.90;;;;;;4989110;28;20019;-39
2021/06/15 03:01:51;;;;;;;11.65;10.60;;;22.70;65.90;;;;;;4972975;28;20106;-41
2021/06/15 03:04:17;;;;;;;10.73;9.52;;;22.70;65.80;;;;;;4973838;28;20081;-40
2021/06/15 03:06:43;;;;;;;11.35;10.25;;;22.80;65.90;;;;;;4978441;28;20062;-39
2021/06/15 03:09:09;;;;;;;11.02;9.95;;;22.70;65.80;;;;;;4986307;28;20400;-40
2021/06/15 03:11:37;;;;;;;11.93;10.73;;;22.70;65.80;;;;;;5015722;28;20018;-41
2021/06/15 03:14:28;;;;;;;11.60;10.60;;;22.60;66.30;;;;;;5015975;28;20485;-40
2021/06/15 03:16:59;;;;;;;12.40;11.15;;;22.50;66.60;;;;;;4968848;28;20038;-41
2021/06/15 03:19:42;;;;;;;12.32;11.00;;;22.60;66.50;;;;;;5017501;28;20030;-39
2021/06/15 03:22:18;;;;;;;11.07;10.18;;;22.60;66.50;;;;;;5002704;28;20037;-39
2021/06/15 03:24:52;;;;;;;11.00;10.00;;;22.50;66.60;;;;;;4988753;28;20046;-40
2021/06/15 03:27:19;;;;;;;11.53;10.50;;;22.50;66.40;;;;;;5004239;28;20110;-40
2021/06/15 03:29:44;;;;;;;11.43;10.50;;;22.60;66.30;;;;;;5013455;28;20409;-42
2021/06/15 03:32:12;;;;;;;11.45;9.52;;;22.60;66.30;;;;;;4996467;28;20035;-40
2021/06/15 03:34:51;;;;;;;11.52;10.52;;;22.70;66.00;;;;;;4988821;28;20026;-37
2021/06/15 03:37:20;;;;;;;10.93;9.82;;;22.60;66.20;;;;;;5002466;28;20022;-40
2021/06/15 03:39:45;;;;;;;10.13;9.20;;;22.60;66.30;;;;;;5021140;28;20408;-40
2021/06/15 03:42:15;;;;;;;11.43;10.23;;;22.60;66.40;;;;;;4983006;28;20023;-41
2021/06/15 03:44:41;;;;;;;9.82;9.02;;;22.50;66.50;;;;;;4993717;28;20528;-41
2021/06/15 03:47:07;;;;;;;10.48;9.40;;;22.50;66.60;;;;;;5008068;28;20019;-41
2021/06/15 03:49:32;;;;;;;9.48;8.77;;;22.40;67.20;;;;;;5003841;28;20070;-40
2021/06/15 03:51:59;;;;;;;9.73;8.93;;;22.40;67.10;;;;;;5024787;28;20029;-41
2021/06/15 03:54:26;;;;;;;10.27;9.38;;;22.50;66.90;;;;;;4978854;28;20030;-41
2021/06/15 03:56:51;;;;;;;9.13;8.30;;;22.40;67.00;;;;;;5007435;28;20049;-39
2021/06/15 03:59:20;;;;;;;9.15;8.30;;;22.50;66.70;;;;;;4978512;28;20027;-40
2021/06/15 04:01:46;;;;;;;9.52;8.68;;;22.50;66.80;;;;;;4991868;28;20096;-41
2021/06/15 04:04:15;;;;;;;9.77;8.88;;;22.40;66.80;;;;;;4992868;28;20892;-41
2021/06/15 04:06:45;;;;;;;9.75;8.93;;;22.50;66.70;;;;;;5005425;28;20053;-40
2021/06/15 04:09:12;;;;;;;9.63;8.88;;;22.50;66.70;;;;;;4982481;28;20046;-39
2021/06/15 04:11:38;;;;;;;10.38;9.38;;;22.50;66.70;;;;;;4996781;28;20118;-40
2021/06/15 04:14:03;;;;;;;9.45;8.63;;;22.50;66.60;;;;;;4992955;28;20109;-40
2021/06/15 04:16:29;;;;;;;8.88;8.18;;;22.50;66.60;;;;;;4976167;28;20042;-41
2021/06/15 04:18:57;;;;;;;9.07;8.43;;;22.60;66.70;;;;;;4989619;28;20054;-42
2021/06/15 04:21:25;;;;;;;9.65;8.77;;;22.60;66.60;;;;;;4972471;28;20515;-39
2021/06/15 04:23:55;;;;;;;9.38;8.48;;;22.50;66.70;;;;;;4990169;28;20038;-41
2021/06/15 04:26:21;;;;;;;9.60;8.48;;;22.50;66.70;;;;;;4995422;28;20030;-39
2021/06/15 04:28:47;;;;;;;8.68;8.02;;;22.50;67.00;;;;;;5021908;28;20030;-41
2021/06/15 04:31:13;;;;;;;9.57;8.70;;;22.50;67.10;;;;;;4990918;28;20555;-39
2021/06/15 04:33:39;;;;;;;9.45;8.00;;;22.40;67.30;;;;;;5007407;28;20027;-41
2021/06/15 04:36:05;;;;;;;8.20;7.45;;;22.40;67.30;;;;;;4971362;28;20030;-40
2021/06/15 04:38:44;;;;;;;8.95;8.25;;;22.50;67.20;;;;;;4970683;28;20033;-42
2021/06/15 04:41:19;;;;;;;8.57;7.93;;;22.40;67.40;;;;;;5002815;28;20169;-41
2021/06/15 04:44:12;;;;;;;10.05;9.13;;;22.40;67.60;;;;;;5003742;28;20464;-39
2021/06/15 04:46:42;;;;;;;8.32;7.63;;;22.30;67.80;;;;;;4985888;28;20077;-42
2021/06/15 04:49:12;;;;;;;7.32;6.80;;;22.30;67.70;;;;;;4991272;28;20069;-41
2021/06/15 04:51:38;;;;;;;8.48;7.68;;;22.40;67.60;;;;;;4987761;28;20121;-42
2021/06/15 04:54:03;;;;;;;9.43;8.43;;;22.40;67.70;;;;;;4970904;28;20033;-41
2021/06/15 04:56:29;;;;;;;8.70;7.90;;;22.40;67.50;;;;;;4991168;28;20030;-41
2021/06/15 04:58:59;;;;;;;9.30;8.20;;;22.40;67.70;;;;;;4989429;28;20423;-42
2021/06/15 05:01:25;;;;;;;9.38;8.38;;;22.40;67.80;;;;;;4988520;28;20081;-42
2021/06/15 05:03:50;;;;;;;8.82;7.97;;;22.40;67.60;;;;;;5005426;28;20053;-41
2021/06/15 05:06:16;;;;;;;8.65;7.95;;;22.30;67.70;;;;;;4972815;28;20110;-40
2021/06/15 05:08:47;;;;;;;9.32;8.02;;;22.40;67.60;;;;;;4986727;28;20029;-40
2021/06/15 05:11:13;;;;;;;11.00;9.98;;;22.00;69.80;;;;;;4991994;28;20077;-37
2021/06/15 05:13:40;;;;;;;9.32;8.30;;;21.90;69.80;;;;;;5021136;28;20034;-40
2021/06/15 05:16:06;;;;;;;10.18;9.25;;;21.80;69.90;;;;;;4989070;28;20501;-40
2021/06/15 05:18:34;;;;;;;9.73;8.82;;;21.70;70.80;;;;;;5016927;28;20070;-40
2021/06/15 05:21:01;;;;;;;9.73;8.90;;;21.60;70.40;;;;;;4984942;28;20524;-40
2021/06/15 05:23:31;;;;;;;8.45;7.63;;;21.40;70.90;;;;;;5011056;28;20034;-41
2021/06/15 05:25:57;;;;;;;8.45;7.93;;;21.40;71.30;;;;;;4668421;28;10000326;-37
2021/06/15 05:28:23;;;;;;;8.50;7.50;;;21.40;71.30;;;;;;5011952;28;20037;-41
2021/06/15 05:30:48;;;;;;;8.45;7.63;;;21.40;71.30;;;;;;4984322;28;20033;-40
2021/06/15 05:33:14;;;;;;;9.25;8.32;;;21.60;70.70;;;;;;4982520;28;20118;-40
2021/06/15 05:35:40;;;;;;;8.85;8.10;;;21.80;70.10;;;;;;4983060;28;20038;-41
2021/06/15 05:38:09;;;;;;;8.75;7.85;;;21.80;70.10;;;;;;4978911;28;20050;-39
2021/06/15 05:40:35;;;;;;;11.07;8.85;;;21.80;70.00;;;;;;4984655;28;20046;-38
2021/06/15 05:43:00;;;;;;;9.40;8.60;;;21.80;70.50;;;;;;4986746;28;20023;-41
2021/06/15 05:45:26;;;;;;;8.32;7.53;;;21.90;69.80;;;;;;4981455;28;20084;-41
2021/06/15 05:47:52;;;;;;;10.15;8.05;;;22.20;69.20;;;;;;4982594;28;20038;-39
2021/06/15 05:50:17;;;;;;;8.95;8.20;;;22.30;68.60;;;;;;4977999;28;20054;-41
2021/06/15 05:52:46;;;;;;;9.00;8.20;;;22.20;68.90;;;;;;4973496;28;20057;-39
2021/06/15 05:55:13;;;;;;;8.95;8.15;;;22.20;68.80;;;;;;5011349;28;20026;-38
2021/06/15 05:57:39;;;;;;;11.25;8.43;;;22.40;68.50;;;;;;4977709;28;20061;-41
2021/06/15 06:00:06;;;;;;;10.00;9.13;;;22.50;67.90;;;;;;4981989;28;20026;-43
2021/06/15 06:02:32;;;;;;;10.00;8.73;;;22.70;67.20;;;;;;4985264;28;20406;-39
2021/06/15 06:08:09;;;;;;;9.15;8.32;;;22.70;66.90;;;;;;4989089;28;20030;-41
2021/06/15 06:10:11;;;;;;;10.60;7.57;;;22.60;67.30;;;;;;4983074;28;20046;-39
2021/06/15 06:12:38;;;;;;;9.02;8.23;;;22.20;68.60;;;;;;4990025;28;20045;-41
2021/06/15 06:15:05;;;;;;;8.95;8.13;;;22.10;68.80;;;;;;4982183;28;20475;-41
2021/06/15 06:17:31;;;;;;;10.35;9.35;;;22.20;68.80;;;;;;4987147;28;20140;-39
2021/06/15 06:19:56;;;;;;;9.90;8.75;;;22.20;68.90;;;;;;5018741;28;20031;-41
2021/06/15 06:22:22;;;;;;;11.20;9.35;;;22.10;69.20;;;;;;5018983;28;20046;-42
2021/06/15 06:24:48;;;;;;;11.98;9.45;;;22.10;68.90;;;;;;4987763;28;20045;-42
2021/06/15 06:27:14;;;;;;;10.55;9.13;;;22.10;69.10;;;;;;4979577;28;20106;-41
2021/06/15 06:29:39;;;;;;;10.35;9.32;;;22.10;69.30;;;;;;4977192;28;20053;-40
2021/06/15 06:32:05;;;;;;;10.82;9.93;;;22.00;70.20;;;;;;4986770;28;20027;-40
2021/06/15 06:34:31;;;;;;;11.07;9.77;;;22.10;69.20;;;;;;5019101;28;20034;-34
2021/06/15 06:36:57;;;;;;;10.15;9.15;;;21.90;69.70;;;;;;4986717;28;20057;-44
2021/06/15 06:39:22;;;;;;;18.25;9.77;;;22.00;69.70;;;;;;4982918;28;20093;-41
2021/06/15 06:41:49;;;;;;;9.23;8.05;;;22.30;69.00;;;;;;4982809;28;20023;-40
2021/06/15 06:44:15;;;;;;;12.15;9.05;;;22.30;68.60;;;;;;4979216;28;20041;-40
2021/06/15 06:46:40;;;;;;;9.18;8.27;;;22.30;68.80;;;;;;4988495;28;20031;-41
2021/06/15 06:49:06;;;;;;;8.43;7.70;;;22.30;68.90;;;;;;4987437;28;20050;-41
2021/06/15 06:51:31;;;;;;;9.32;8.43;;;22.40;68.50;;;;;;4983940;28;20092;-41
2021/06/15 06:53:59;;;;;;;10.98;8.52;;;22.30;68.70;;;;;;4981537;28;20034;-41
2021/06/15 06:56:25;;;;;;;8.50;7.80;;;22.30;68.80;;;;;;4975250;28;20038;-41
2021/06/15 06:58:50;;;;;;;8.02;7.32;;;22.30;68.60;;;;;;4986979;28;20031;-41
2021/06/15 07:01:16;;;;;;;7.53;6.93;;;22.10;69.90;;;;;;4974437;28;20398;-42
2021/06/15 07:03:41;;;;;;;8.40;7.63;;;22.20;69.10;;;;;;4976388;28;20035;-39
2021/06/15 07:06:07;;;;;;;7.45;6.85;;;22.30;68.80;;;;;;4976637;28;20493;-41
2021/06/15 07:08:33;;;;;;;8.18;7.10;;;22.20;69.00;;;;;;4975375;28;20101;-41
2021/06/15 07:10:58;;;;;;;8.23;7.43;;;22.30;68.90;;;;;;4988249;28;20019;-41
2021/06/15 07:13:24;;;;;;;8.60;7.75;;;22.40;68.50;;;;;;4978049;28;20054;-39
2021/06/15 07:15:49;;;;;;;8.63;7.78;;;22.60;67.90;;;;;;4980400;28;20030;-40
2021/06/15 07:18:15;;;;;;;9.88;8.68;;;22.70;67.50;;;;;;4985007;28;20030;-40
2021/06/15 07:20:41;;;;;;;9.25;8.35;;;22.80;67.20;;;;;;4987640;28;20031;-41
2021/06/15 07:23:06;;;;;;;8.75;7.80;;;22.80;66.90;;;;;;4976948;28;20019;-40
2021/06/15 07:25:32;;;;;;;11.40;9.00;;;22.80;67.10;;;;;;4991125;28;20065;-41
2021/06/15 07:28:00;;;;;;;8.95;8.07;;;22.80;66.90;;;;;;4991134;28;20030;-41
2021/06/15 07:30:26;;;;;;;8.65;7.88;;;22.70;67.20;;;;;;4987271;28;20084;-41
2021/06/15 07:32:57;;;;;;;9.25;8.35;;;22.80;67.20;;;;;;5019121;28;20026;-40
2021/06/15 07:35:24;;;;;;;7.78;7.10;;;22.70;67.50;;;;;;4989062;28;20400;-40
2021/06/15 07:37:50;;;;;;;8.57;7.97;;;22.70;67.30;;;;;;5007422;28;20031;-41
2021/06/15 07:40:22;;;;;;;9.25;8.25;;;22.60;67.70;;;;;;4992870;28;20049;-39
2021/06/15 07:42:47;;;;;;;8.30;7.47;;;22.40;68.20;;;;;;4989996;28;20030;-41
2021/06/15 07:45:13;;;;;;;8.80;8.00;;;22.50;68.20;;;;;;4986994;28;20042;-41
2021/06/15 07:47:39;;;;;;;8.98;8.18;;;22.40;68.40;;;;;;4985725;28;20054;-41
2021/06/15 07:50:05;;;;;;;8.23;7.43;;;22.40;68.70;;;;;;4985592;28;20121;-41
2021/06/15 07:52:31;;;;;;;12.10;8.68;;;22.50;68.50;;;;;;4991264;28;20061;-39
2021/06/15 07:54:57;;;;;;;9.82;8.93;;;22.40;68.80;;;;;;4990489;28;20041;-41
2021/06/15 07:57:22;;;;;;;10.13;9.00;;;22.20;69.50;;;;;;4987016;28;20034;-41
2021/06/15 07:59:48;;;;;;;9.82;8.80;;;22.30;69.50;;;;;;4987184;28;20117;-41
2021/06/15 08:02:13;;;;;;;9.75;8.35;;;22.40;69.10;;;;;;4986289;28;20035;-41
2021/06/15 08:04:39;;;;;;;10.52;8.57;;;22.60;68.20;;;;;;4990223;28;20041;-41
2021/06/15 08:07:04;;;;;;;9.85;9.02;;;22.60;68.60;;;;;;4993658;28;20488;-42
2021/06/15 08:09:30;;;;;;;9.57;8.63;;;22.60;68.30;;;;;;4979847;28;20127;-43
2021/06/15 08:11:56;;;;;;;9.90;9.00;;;22.60;68.20;;;;;;4985233;28;20030;-42
2021/06/15 08:14:21;;;;;;;8.80;7.90;;;22.60;68.20;;;;;;4991833;28;20034;-42
2021/06/15 08:16:47;;;;;;;10.40;8.70;;;22.70;68.00;;;;;;4990152;28;20026;-42
2021/06/15 08:19:13;;;;;;;8.82;7.93;;;22.90;67.60;;;;;;4974784;28;20065;-41
2021/06/15 08:21:38;;;;;;;9.38;8.50;;;22.80;67.50;;;;;;4988080;28;20498;-46
2021/06/15 08:24:05;;;;;;;9.60;8.65;;;22.60;68.40;;;;;;4983441;28;20098;-43
2021/06/15 08:26:30;;;;;;;8.77;7.93;;;22.50;68.60;;;;;;4981101;28;20023;-43
2021/06/15 08:28:56;;;;;;;9.25;8.45;;;22.60;68.30;;;;;;4988552;28;20031;-42
2021/06/15 08:31:21;;;;;;;9.25;8.30;;;22.70;68.30;;;;;;4989353;28;20105;-43
2021/06/15 08:33:47;;;;;;;9.35;8.45;;;22.70;68.40;;;;;;4989146;28;20022;-43
2021/06/15 08:36:12;;;;;;;9.52;8.50;;;22.70;68.20;;;;;;4986263;28;20034;-42
2021/06/15 08:38:38;;;;;;;9.52;7.90;;;22.90;68.00;;;;;;4986152;28;20033;-45
2021/06/15 08:41:04;;;;;;;7.90;7.20;;;22.80;68.50;;;;;;4977619;28;20022;-44
2021/06/15 08:43:29;;;;;;;7.88;7.13;;;23.00;67.50;;;;;;4978339;28;20582;-44
2021/06/15 08:45:55;;;;;;;7.95;7.20;;;23.20;66.90;;;;;;5023976;28;20038;-41
2021/06/15 08:48:21;;;;;;;9.23;7.25;;;23.20;66.40;;;;;;4981715;28;20532;-44
2021/06/15 08:50:47;;;;;;;7.80;7.03;;;22.90;67.00;;;;;;4985691;28;20035;-44
2021/06/15 08:53:13;;;;;;;10.90;7.82;;;23.00;67.20;;;;;;4987139;28;20101;-41
2021/06/15 08:55:38;;;;;;;11.15;6.95;;;23.10;66.60;;;;;;4988967;28;20030;-42
2021/06/15 08:58:23;;;;;;;7.28;6.68;;;23.20;66.10;;;;;;4993034;28;20085;-37
2021/06/15 09:00:49;;;;;;;6.97;6.25;;;23.30;65.60;;;;;;4991787;28;20062;-40
2021/06/15 09:03:14;;;;;;;6.85;6.35;;;23.20;65.70;;;;;;4987701;28;20056;-42
2021/06/15 09:05:41;;;;;;;6.47;5.88;;;23.30;65.80;;;;;;4990268;28;20058;-40
2021/06/15 09:08:13;;;;;;;6.38;5.88;;;23.50;64.90;;;;;;4990093;28;20018;-43
2021/06/15 09:10:43;;;;;;;6.93;6.32;;;23.50;64.70;;;;;;4987341;28;20501;-44
2021/06/15 09:13:34;;;;;;;6.22;5.63;;;23.60;64.40;;;;;;4991901;28;20038;-41
2021/06/15 09:16:00;;;;;;;7.47;6.78;;;23.60;64.30;;;;;;4991819;28;20029;-46
2021/06/15 09:18:28;;;;;;;7.03;6.28;;;23.70;64.00;;;;;;4988397;28;20038;-39
2021/06/15 09:20:54;;;;;;;6.22;5.75;;;23.80;64.00;;;;;;4989967;28;20500;-42
2021/06/15 09:23:19;;;;;;;6.30;5.82;;;23.90;63.50;;;;;;4985887;28;20497;-43
2021/06/15 09:25:48;;;;;;;5.50;5.10;;;23.90;63.10;;;;;;4955928;28;20045;-44
2021/06/15 09:28:20;;;;;;;6.75;5.30;;;24.00;62.90;;;;;;4989399;28;20030;-43
2021/06/15 09:31:01;;;;;;;4.95;4.60;;;24.00;62.80;;;;;;4989810;28;20015;-38
2021/06/15 09:33:43;;;;;;;6.15;5.65;;;24.10;62.50;;;;;;4988328;28;20050;-37
2021/06/15 09:36:29;;;;;;;7.90;5.10;;;24.20;62.70;;;;;;4987545;28;20511;-38
2021/06/15 09:38:59;;;;;;;5.68;5.28;;;24.20;62.70;;;;;;4988581;28;20049;-41
2021/06/15 09:41:44;;;;;;;5.82;5.32;;;24.20;62.40;;;;;;4986373;28;20128;-41
2021/06/15 09:44:29;;;;;;;6.88;5.28;;;24.30;62.20;;;;;;4987205;28;20145;-38
2021/06/15 09:46:59;;;;;;;;;;;24.40;62.00;;;;;;4990045;28;20089;-38
2021/06/15 09:49:43;;;;;;;5.32;4.85;;;24.40;61.80;;;;;;4989924;28;19941;-35
2021/06/15 09:52:27;;;;;;;;;;;24.40;61.50;;;;;;4990379;28;20026;-36
2021/06/15 09:54:53;;;;;;;5.65;5.28;;;24.40;61.90;;;;;;4989740;28;19914;-41
2021/06/15 09:57:22;;;;;;;6.57;6.07;;;24.30;62.10;;;;;;4987864;28;20018;-40
2021/06/15 10:00:00;;;;;;;6.10;5.60;;;24.40;62.10;;;;;;4986236;28;20031;-39
2021/06/15 10:02:26;;;;;;;6.00;5.53;;;24.50;61.70;;;;;;4988312;28;20022;-41
2021/06/15 10:04:51;;;;;;;5.32;4.93;;;24.50;61.70;;;;;;4988843;28;20579;-39
2021/06/15 10:07:30;;;;;;;5.90;5.40;;;24.60;61.30;;;;;;4989841;28;20563;-40
2021/06/15 10:09:56;;;;;;;5.88;5.38;;;24.70;61.20;;;;;;4989715;28;20038;-40
2021/06/15 10:12:22;;;;;;;5.50;5.18;;;24.70;61.00;;;;;;4988368;28;20026;-41
2021/06/15 10:14:48;;;;;;;5.22;4.93;;;24.70;61.80;;;;;;4986901;28;20117;-40
2021/06/15 10:17:13;;;;;;;5.10;4.63;;;24.60;61.20;;;;;;4987148;28;20471;-39
2021/06/15 10:19:39;;;;;;;5.28;4.95;;;24.70;61.20;;;;;;4988882;28;20030;-40
2021/06/15 10:22:07;;;;;;;6.05;5.60;;;24.70;61.30;;;;;;4990438;28;20019;-41
2021/06/15 10:24:36;;;;;;;5.22;4.82;;;24.80;60.70;;;;;;4987298;28;20057;-44
2021/06/15 10:27:02;;;;;;;5.80;5.45;;;24.90;60.60;;;;;;4984213;28;20069;-39
2021/06/15 10:29:28;;;;;;;4.50;4.20;;;24.80;60.60;;;;;;4984125;28;20030;-42
2021/06/15 10:31:54;;;;;;;5.10;4.70;;;25.00;60.30;;;;;;4985909;28;20113;-41
2021/06/15 10:34:53;;;;;;;4.47;4.28;;;25.00;59.80;;;;;;4987983;28;20116;-40
2021/06/15 10:37:34;;;;;;;4.85;4.45;;;24.90;60.20;;;;;;4985376;28;20026;-42
2021/06/15 10:40:02;;;;;;;5.22;4.80;;;24.90;60.30;;;;;;4989406;28;20034;-43
2021/06/15 10:42:27;;;;;;;4.20;3.90;;;24.90;60.20;;;;;;4985365;28;20034;-43
2021/06/15 10:45:12;;;;;;;5.68;4.50;;;24.90;60.30;;;;;;4984442;28;20092;-43
2021/06/15 10:47:40;;;;;;;4.07;3.80;;;25.00;60.00;;;;;;4985522;28;20041;-43
2021/06/15 10:50:07;;;;;;;4.13;3.83;;;25.00;60.10;;;;;;4967645;28;20596;-43
2021/06/15 10:53:00;;;;;;;4.32;4.03;;;25.00;60.00;;;;;;4986842;28;20425;-41
2021/06/15 10:55:45;;;;;;;4.18;3.88;;;25.00;60.00;;;;;;4986419;28;20387;-41
2021/06/15 10:58:12;;;;;;;4.43;4.13;;;25.20;59.60;;;;;;4989432;28;20026;-43
2021/06/15 11:00:45;;;;;;;4.18;3.92;;;25.20;59.50;;;;;;4986735;28;20077;-40
2021/06/15 11:03:16;;;;;;;5.40;3.77;;;25.10;59.80;;;;;;4981366;28;20041;-41
2021/06/15 11:05:44;;;;;;;4.75;4.40;;;25.10;59.80;;;;;;4984111;28;20038;-44
2021/06/15 11:08:21;;;;;;;4.28;3.97;;;25.10;59.70;;;;;;4981829;28;20027;-42
2021/06/15 11:10:58;;;;;;;15.50;3.80;;;25.20;59.50;;;;;;4979465;28;20039;-42
2021/06/15 11:13:53;;;;;;;3.90;3.60;;;25.30;59.40;;;;;;4981584;28;20173;-43
2021/06/15 11:16:34;;;;;;;4.35;4.07;;;25.20;59.40;;;;;;4981831;28;20041;-43
2021/06/15 11:19:13;;;;;;;4.60;3.70;;;25.20;59.40;;;;;;4985438;28;20026;-42
2021/06/15 11:21:44;;;;;;;4.55;4.25;;;25.30;59.20;;;;;;4984611;28;20142;-43
2021/06/15 11:24:23;;;;;;;5.07;4.25;;;25.20;59.90;;;;;;4982566;28;20034;-43
2021/06/15 11:26:49;;;;;;;3.70;3.40;;;25.30;59.40;;;;;;4983108;28;20030;-43
2021/06/15 11:29:28;;;;;;;4.40;4.10;;;25.30;59.40;;;;;;4983516;28;20161;-43
2021/06/15 11:31:53;;;;;;;3.58;3.38;;;25.30;59.40;;;;;;4983715;28;20268;-41
2021/06/15 11:34:20;;;;;;;4.43;3.80;;;25.20;59.90;;;;;;4984693;28;20381;-42
2021/06/15 11:36:51;;;;;;;3.63;3.42;;;25.00;60.30;;;;;;4984164;28;20022;-41
2021/06/15 11:39:23;;;;;;;3.00;2.80;;;25.00;60.70;;;;;;4981639;28;20064;-40
2021/06/15 11:42:07;;;;;;;3.58;3.33;;;25.10;59.90;;;;;;4636575;28;10000542;-40
2021/06/15 11:44:59;;;;;;;3.90;3.70;;;25.20;59.70;;;;;;4981817;28;20121;-41
2021/06/15 11:47:34;;;;;;;4.03;3.63;;;25.20;59.50;;;;;;4982239;28;20113;-41
2021/06/15 11:50:03;;;;;;;3.75;3.50;;;25.00;60.70;;;;;;4983466;28;20544;-41
2021/06/15 11:52:30;;;;;;;3.60;3.40;;;25.00;60.30;;;;;;4986320;28;20037;-41
2021/06/15 11:54:55;;;;;;;3.80;3.60;;;25.20;59.60;;;;;;4990261;28;20042;-44
2021/06/15 11:57:21;;;;;;;3.92;3.60;;;25.10;60.00;;;;;;4988101;28;20381;-40
2021/06/15 11:59:46;;;;;;;3.97;3.78;;;25.10;59.80;;;;;;4992004;28;20054;-41
2021/06/15 12:02:12;;;;;;;3.47;3.28;;;25.20;59.70;;;;;;4991443;28;20105;-41
2021/06/15 12:04:38;;;;;;;3.67;3.38;;;25.40;59.50;;;;;;4972809;28;20038;-37
2021/06/15 12:07:17;;;;;;;3.97;3.70;;;25.20;59.60;;;;;;4993600;28;20034;-42
2021/06/15 12:10:11;;;;;;;4.03;3.72;;;25.30;59.30;;;;;;4992518;28;20096;-41
2021/06/15 12:12:56;;;;;;;;;;;25.10;59.80;;;;;;4990860;28;20030;-35
2021/06/15 12:15:34;;;;;;;3.50;3.30;;;25.20;59.80;;;;;;4989525;28;19956;-41
2021/06/15 12:18:00;;;;;;;3.92;3.63;;;25.20;59.70;;;;;;4988595;28;20034;-41
2021/06/15 12:20:32;;;;;;;3.28;3.08;;;25.30;59.40;;;;;;4990549;28;20473;-41
2021/06/15 12:22:57;;;;;;;3.30;3.10;;;25.10;59.80;;;;;;4989958;28;20041;-41
2021/06/15 12:25:30;;;;;;;3.13;2.92;;;25.30;59.30;;;;;;4990740;28;20559;-40
2021/06/15 12:28:09;;;;;;;3.13;2.92;;;25.40;59.10;;;;;;4992493;28;20529;-41
2021/06/15 12:30:37;;;;;;;2.75;2.65;;;25.30;59.30;;;;;;4989877;28;20049;-41
2021/06/15 12:33:03;;;;;;;3.00;2.90;;;25.20;59.50;;;;;;4990102;28;20030;-42
2021/06/15 12:35:29;;;;;;;3.22;2.67;;;25.10;59.70;;;;;;4989200;28;20029;-41
2021/06/15 12:37:54;;;;;;;4.55;3.30;;;25.10;59.80;;;;;;4988262;28;20027;-42
2021/06/15 12:40:20;;;;;;;3.25;3.05;;;25.20;59.90;;;;;;4991646;28;20028;-40
2021/06/15 12:42:49;;;;;;;3.20;3.03;;;25.20;59.70;;;;;;5018919;28;20038;-41
2021/06/15 12:45:14;;;;;;;3.80;3.10;;;25.20;59.60;;;;;;4984173;28;20133;-40
2021/06/15 12:47:43;;;;;;;3.00;2.90;;;25.10;60.00;;;;;;4986560;28;20030;-41
2021/06/15 12:50:20;;;;;;;3.20;3.00;;;25.20;59.60;;;;;;4985995;28;20046;-41
2021/06/15 12:52:45;;;;;;;3.97;3.53;;;25.10;59.80;;;;;;4981384;28;20038;-42
2021/06/15 12:55:13;;;;;;;3.05;2.85;;;25.20;59.70;;;;;;4985703;28;20450;-41
2021/06/15 12:57:38;;;;;;;3.15;2.95;;;25.00;60.50;;;;;;4986439;28;20746;-39